Time;durP1;ratioP1;P1;durP2;ratioP2;P2;SDS_P1;SDS_P2;PMS_P1;PMS_P2;Temp;Humidity;BMP_temperature;BMP_pressure;BME280_temperature;BME280_humidity;BME280_pressure;Samples;Min_cycle;Max_cycle;Signal;HPM_P1;HPM_P2
2021/12/06 00:00:55;;;;;;;23.45;16.33;;;;;;;;;;5037398;28;20057;-78
2021/12/06 00:03:32;;;;;;;25.17;17.48;;;;;;;;;;5037047;28;20052;-79
2021/12/06 00:05:59;;;;;;;25.08;17.08;;;;;;;;;;5045066;28;20056;-79
2021/12/06 00:08:25;;;;;;;23.77;18.08;;;;;;;;;;5039794;28;20116;-78
2021/12/06 00:10:51;;;;;;;24.42;17.85;;;;;;;;;;5044798;28;20080;-78
2021/12/06 00:13:23;;;;;;;24.65;17.05;;;;;;;;;;5044226;28;20483;-78
2021/12/06 00:15:50;;;;;;;24.70;16.25;;;;;;;;;;5025771;28;20449;-77
2021/12/06 00:18:17;;;;;;;21.95;16.08;;;;;;;;;;5052444;28;20041;-78
2021/12/06 00:20:44;;;;;;;24.67;17.13;;;;;;;;;;5049245;28;20052;-78
2021/12/06 00:23:10;;;;;;;21.52;15.93;;;;;;;;;;5033279;28;20114;-78
2021/12/06 00:25:36;;;;;;;22.60;15.10;;;;;;;;;;5054647;28;20086;-78
2021/12/06 00:28:03;;;;;;;22.40;16.35;;;;;;;;;;5045211;28;20045;-78
2021/12/06 00:30:29;;;;;;;22.60;16.33;;;;;;;;;;5039992;28;20423;-80
2021/12/06 00:32:55;;;;;;;25.55;16.70;;;;;;;;;;5056240;28;20057;-79
2021/12/06 00:35:23;;;;;;;24.85;17.55;;;;;;;;;;5041604;28;20458;-78
2021/12/06 00:37:56;;;;;;;26.35;17.17;;;;;;;;;;5035843;28;20380;-77
2021/12/06 00:40:23;;;;;;;25.90;17.60;;;;;;;;;;5036158;28;20033;-79
2021/12/06 00:42:49;;;;;;;23.73;16.17;;;;;;;;;;5035202;28;20128;-78
2021/12/06 00:45:16;;;;;;;27.15;17.33;;;;;;;;;;5029909;28;20045;-77
2021/12/06 00:47:42;;;;;;;24.90;17.42;;;;;;;;;;5029774;28;20049;-78
2021/12/06 00:50:08;;;;;;;26.02;17.17;;;;;;;;;;5028069;28;20060;-78
2021/12/06 00:52:35;;;;;;;22.90;16.60;;;;;;;;;;5013427;28;20099;-78
2021/12/06 00:55:01;;;;;;;26.17;18.20;;;;;;;;;;5041516;28;20120;-78
2021/12/06 00:57:27;;;;;;;26.50;17.95;;;;;;;;;;5041127;28;20045;-78
2021/12/06 00:59:53;;;;;;;29.50;18.58;;;;;;;;;;5038261;28;20121;-78
2021/12/06 01:02:20;;;;;;;31.05;18.75;;;;;;;;;;5018005;28;20041;-78
2021/12/06 01:04:48;;;;;;;30.25;19.30;;;;;;;;;;5014218;28;20164;-78
2021/12/06 01:07:14;;;;;;;27.50;17.77;;;;;;;;;;5036807;28;20056;-79
2021/12/06 01:09:41;;;;;;;28.65;17.63;;;;;;;;;;5020619;28;20481;-78
2021/12/06 01:12:08;;;;;;;29.00;18.85;;;;;;;;;;5023327;28;20373;-78
2021/12/06 01:14:34;;;;;;;28.30;19.13;;;;;;;;;;5033639;28;20376;-77
2021/12/06 01:17:00;;;;;;;29.02;18.23;;;;;;;;;;5032031;28;20120;-79
2021/12/06 01:19:29;;;;;;;31.10;18.80;;;;;;;;;;5031786;28;20055;-79
2021/12/06 01:22:12;;;;;;;27.90;18.13;;;;;;;;;;5019522;28;20041;-77
2021/12/06 01:24:45;;;;;;;30.38;19.05;;;;;;;;;;5018201;28;20381;-78
2021/12/06 01:40:33;;;;;;;27.77;18.35;;;;;;;;;;4979151;28;20073;-77
2021/12/06 01:43:04;;;;;;;28.38;18.42;;;;;;;;;;5018622;28;20085;-78
2021/12/06 01:45:30;;;;;;;28.65;18.25;;;;;;;;;;5034197;28;20056;-77
2021/12/06 01:47:56;;;;;;;27.15;16.52;;;;;;;;;;5047141;28;20045;-79
2021/12/06 01:50:28;;;;;;;25.75;16.30;;;;;;;;;;5047398;28;20076;-77
2021/12/06 01:52:59;;;;;;;27.75;17.90;;;;;;;;;;5039227;28;20406;-77
2021/12/06 01:55:31;;;;;;;28.60;17.83;;;;;;;;;;5042497;28;20051;-77
2021/12/06 01:57:58;;;;;;;24.25;15.48;;;;;;;;;;5050393;28;20044;-77
2021/12/06 02:00:36;;;;;;;23.65;14.98;;;;;;;;;;5034962;28;20041;-77
2021/12/06 02:03:02;;;;;;;22.60;15.32;;;;;;;;;;5054686;28;20136;-77
2021/12/06 02:05:28;;;;;;;25.40;15.52;;;;;;;;;;5053614;28;20048;-77
2021/12/06 02:07:55;;;;;;;24.08;15.55;;;;;;;;;;5051082;28;20049;-77
2021/12/06 02:10:22;;;;;;;28.13;17.20;;;;;;;;;;5019789;28;20045;-79
2021/12/06 02:12:50;;;;;;;26.15;16.92;;;;;;;;;;5045439;28;20045;-78
2021/12/06 02:17:55;;;;;;;27.25;17.23;;;;;;;;;;5053583;28;20468;-78
2021/12/06 02:20:27;;;;;;;28.38;17.33;;;;;;;;;;5047001;28;20052;-77
2021/12/06 02:22:54;;;;;;;26.48;16.02;;;;;;;;;;5033298;28;20049;-79
2021/12/06 02:25:20;;;;;;;28.90;17.13;;;;;;;;;;5046578;28;20064;-78
2021/12/06 02:27:53;;;;;;;26.45;18.25;;;;;;;;;;5046431;28;20081;-79
2021/12/06 02:30:19;;;;;;;28.80;18.60;;;;;;;;;;5038747;28;20049;-78
2021/12/06 02:32:46;;;;;;;28.10;18.17;;;;;;;;;;5037317;28;20127;-79
2021/12/06 02:35:16;;;;;;;30.88;18.50;;;;;;;;;;5039741;28;20041;-79
2021/12/06 02:37:43;;;;;;;30.27;18.98;;;;;;;;;;5017964;28;20168;-77
2021/12/06 02:40:15;;;;;;;31.25;20.13;;;;;;;;;;5027513;28;20405;-78
2021/12/06 02:42:44;;;;;;;30.95;20.08;;;;;;;;;;5044758;28;20077;-79
2021/12/06 02:45:12;;;;;;;30.70;19.38;;;;;;;;;;5017381;28;20401;-78
2021/12/06 02:47:38;;;;;;;30.80;18.63;;;;;;;;;;5028496;28;20041;-77
2021/12/06 02:50:08;;;;;;;32.20;20.08;;;;;;;;;;5015367;28;20050;-80
2021/12/06 02:52:34;;;;;;;31.38;20.08;;;;;;;;;;5016306;28;20049;-80
2021/12/06 02:55:07;;;;;;;33.08;19.67;;;;;;;;;;5017587;28;20203;-77
2021/12/06 02:57:37;;;;;;;32.25;20.20;;;;;;;;;;5016722;28;20038;-78
2021/12/06 03:00:10;;;;;;;30.33;19.40;;;;;;;;;;5016595;28;20033;-80
2021/12/06 03:02:36;;;;;;;34.83;20.77;;;;;;;;;;5033655;28;20037;-77
2021/12/06 03:05:03;;;;;;;31.73;20.63;;;;;;;;;;5015683;28;20041;-78
2021/12/06 03:07:31;;;;;;;33.08;21.25;;;;;;;;;;5016805;28;20588;-78
2021/12/06 03:09:58;;;;;;;32.22;20.83;;;;;;;;;;5029951;28;20057;-79
2021/12/06 03:12:25;;;;;;;35.30;21.55;;;;;;;;;;5030716;28;20550;-77
2021/12/06 03:14:54;;;;;;;35.42;22.02;;;;;;;;;;5018516;28;20034;-79
2021/12/06 03:17:21;;;;;;;34.58;21.77;;;;;;;;;;5005184;28;20123;-79
2021/12/06 03:19:48;;;;;;;35.50;22.27;;;;;;;;;;5015626;28;20088;-78
2021/12/06 03:22:16;;;;;;;37.78;21.95;;;;;;;;;;5016584;28;20042;-79
2021/12/06 03:24:43;;;;;;;37.10;21.60;;;;;;;;;;5046014;28;20040;-80
2021/12/06 03:27:09;;;;;;;37.38;22.55;;;;;;;;;;5033691;28;20477;-78
2021/12/06 03:29:36;;;;;;;38.60;23.02;;;;;;;;;;5021217;28;20108;-79
2021/12/06 03:32:03;;;;;;;36.78;21.67;;;;;;;;;;5025609;28;20045;-79
2021/12/06 03:34:29;;;;;;;36.92;21.88;;;;;;;;;;5033278;28;20404;-77
2021/12/06 03:36:56;;;;;;;35.13;22.17;;;;;;;;;;5020674;28;20107;-77
2021/12/06 03:39:25;;;;;;;36.83;22.20;;;;;;;;;;5046145;28;20477;-78
2021/12/06 03:41:53;;;;;;;39.55;22.70;;;;;;;;;;5024506;28;20082;-78
2021/12/06 03:44:20;;;;;;;37.53;22.35;;;;;;;;;;5049354;28;20227;-79
2021/12/06 03:46:47;;;;;;;38.40;21.63;;;;;;;;;;5056824;28;20040;-78
2021/12/06 03:49:15;;;;;;;39.40;23.10;;;;;;;;;;5052829;28;20113;-79
2021/12/06 03:51:45;;;;;;;36.17;22.02;;;;;;;;;;5035275;28;20113;-78
2021/12/06 03:54:13;;;;;;;37.05;22.55;;;;;;;;;;5032724;28;20048;-78
2021/12/06 03:56:39;;;;;;;39.47;23.33;;;;;;;;;;5036175;28;20449;-78
2021/12/06 03:59:06;;;;;;;37.90;23.50;;;;;;;;;;5036296;28;20045;-79
2021/12/06 04:01:32;;;;;;;41.00;23.20;;;;;;;;;;5037120;28;20077;-79
2021/12/06 04:03:59;;;;;;;36.70;22.23;;;;;;;;;;5044218;28;20041;-79
2021/12/06 04:06:25;;;;;;;39.65;23.50;;;;;;;;;;5056755;28;20092;-79
2021/12/06 04:08:51;;;;;;;43.08;23.92;;;;;;;;;;5046107;28;20053;-78
2021/12/06 04:11:17;;;;;;;39.67;22.52;;;;;;;;;;5039237;28;20046;-78
2021/12/06 04:13:44;;;;;;;39.55;22.77;;;;;;;;;;5029470;28;20063;-78
2021/12/06 04:16:10;;;;;;;39.35;22.40;;;;;;;;;;5029133;28;20037;-77
2021/12/06 04:18:36;;;;;;;44.35;23.45;;;;;;;;;;5019104;28;20322;-79
2021/12/06 04:21:03;;;;;;;41.42;23.10;;;;;;;;;;5035989;28;20153;-77
2021/12/06 04:23:30;;;;;;;41.97;23.17;;;;;;;;;;5036575;28;20049;-77
2021/12/06 04:25:56;;;;;;;42.58;24.67;;;;;;;;;;5030420;28;20045;-79
2021/12/06 04:28:23;;;;;;;42.45;23.95;;;;;;;;;;5044416;28;20055;-78
2021/12/06 04:30:50;;;;;;;44.05;23.55;;;;;;;;;;5036079;28;20084;-77
2021/12/06 04:33:16;;;;;;;41.40;22.58;;;;;;;;;;5035690;28;20045;-79
2021/12/06 04:35:43;;;;;;;43.92;23.95;;;;;;;;;;5035992;28;20053;-79
2021/12/06 04:38:10;;;;;;;42.05;23.75;;;;;;;;;;5033133;28;20045;-79
2021/12/06 04:40:37;;;;;;;45.42;25.00;;;;;;;;;;5039293;28;20515;-78
2021/12/06 04:43:04;;;;;;;46.85;23.80;;;;;;;;;;5040544;28;20092;-78
2021/12/06 04:45:30;;;;;;;47.25;24.42;;;;;;;;;;5040417;28;20041;-78
2021/12/06 04:47:56;;;;;;;45.70;23.80;;;;;;;;;;5048521;28;20045;-79
2021/12/06 04:50:25;;;;;;;43.33;22.85;;;;;;;;;;5032139;28;20457;-78
2021/12/06 04:52:53;;;;;;;51.45;25.42;;;;;;;;;;5056733;28;20067;-78
2021/12/06 04:55:22;;;;;;;50.55;25.52;;;;;;;;;;5045507;28;20137;-78
2021/12/06 04:57:48;;;;;;;49.35;26.17;;;;;;;;;;5038123;28;20044;-79
2021/12/06 05:00:21;;;;;;;44.85;24.92;;;;;;;;;;5036506;28;20051;-78
2021/12/06 05:02:48;;;;;;;48.05;24.90;;;;;;;;;;5045935;28;20045;-79
2021/12/06 05:05:19;;;;;;;50.55;25.33;;;;;;;;;;5019841;28;20045;-77
2021/12/06 05:07:48;;;;;;;47.10;23.73;;;;;;;;;;5030612;28;20045;-77
2021/12/06 05:10:16;;;;;;;50.85;25.45;;;;;;;;;;5018810;28;20057;-78
2021/12/06 05:12:43;;;;;;;51.42;25.25;;;;;;;;;;5034798;28;20373;-77
2021/12/06 05:15:10;;;;;;;53.72;25.55;;;;;;;;;;5035617;28;20045;-79
2021/12/06 05:17:36;;;;;;;48.95;24.80;;;;;;;;;;5050297;28;20045;-79
2021/12/06 05:20:04;;;;;;;50.65;25.98;;;;;;;;;;5053008;28;20033;-78
2021/12/06 05:22:30;;;;;;;50.08;25.55;;;;;;;;;;5055556;28;20128;-79
2021/12/06 05:24:56;;;;;;;50.45;25.27;;;;;;;;;;5031491;28;20037;-78
2021/12/06 05:27:28;;;;;;;48.22;25.33;;;;;;;;;;5018134;28;20360;-79
2021/12/06 05:29:58;;;;;;;50.58;25.65;;;;;;;;;;5036205;28;20037;-77
2021/12/06 05:32:26;;;;;;;50.15;25.23;;;;;;;;;;5037778;28;20047;-79
2021/12/06 05:35:01;;;;;;;47.42;25.70;;;;;;;;;;5018340;28;20044;-77
2021/12/06 05:37:27;;;;;;;45.05;24.02;;;;;;;;;;5034982;28;20119;-79
2021/12/06 05:39:54;;;;;;;47.78;25.00;;;;;;;;;;5035011;28;20075;-79
2021/12/06 05:42:20;;;;;;;48.15;24.48;;;;;;;;;;5052557;28;20041;-78
2021/12/06 05:44:47;;;;;;;48.65;24.13;;;;;;;;;;5048637;28;20056;-80
2021/12/06 05:47:14;;;;;;;45.03;24.17;;;;;;;;;;5046508;28;20045;-77
2021/12/06 05:49:40;;;;;;;50.03;26.05;;;;;;;;;;5034264;28;20127;-79
2021/12/06 05:52:07;;;;;;;46.88;25.52;;;;;;;;;;5033472;28;20373;-77
2021/12/06 05:54:33;;;;;;;48.75;24.92;;;;;;;;;;5034424;28;20081;-78
2021/12/06 05:57:00;;;;;;;49.40;23.48;;;;;;;;;;5034411;28;20042;-78
2021/12/06 05:59:27;;;;;;;48.85;24.95;;;;;;;;;;5033827;28;20041;-78
2021/12/06 06:01:54;;;;;;;47.88;24.90;;;;;;;;;;5036328;28;20417;-78
2021/12/06 06:04:21;;;;;;;49.65;25.15;;;;;;;;;;5055428;28;20055;-79
2021/12/06 06:06:49;;;;;;;49.97;27.02;;;;;;;;;;5038326;28;20088;-77
2021/12/06 06:09:15;;;;;;;52.33;26.67;;;;;;;;;;5035261;28;20049;-78
2021/12/06 06:11:42;;;;;;;50.50;25.02;;;;;;;;;;5026807;28;20388;-79
2021/12/06 06:14:08;;;;;;;50.42;27.02;;;;;;;;;;5044787;28;20037;-79
2021/12/06 06:16:46;;;;;;;47.55;25.30;;;;;;;;;;5041063;28;20041;-78
2021/12/06 06:19:12;;;;;;;47.95;24.05;;;;;;;;;;5034466;28;20064;-78
2021/12/06 06:21:39;;;;;;;44.72;22.85;;;;;;;;;;5048902;28;20080;-79
2021/12/06 06:24:05;;;;;;;50.20;24.42;;;;;;;;;;5044993;28;20054;-79
2021/12/06 06:26:31;;;;;;;50.47;25.35;;;;;;;;;;5032348;28;20131;-78
2021/12/06 06:28:57;;;;;;;48.95;24.30;;;;;;;;;;5044863;28;20125;-80
2021/12/06 06:31:24;;;;;;;47.65;24.17;;;;;;;;;;5026228;28;20368;-79
2021/12/06 06:33:50;;;;;;;49.08;23.45;;;;;;;;;;5017170;28;20372;-78
2021/12/06 06:36:16;;;;;;;43.33;23.23;;;;;;;;;;5034197;28;20036;-80
2021/12/06 06:38:42;;;;;;;46.83;23.67;;;;;;;;;;5034085;28;20045;-79
2021/12/06 06:41:08;;;;;;;42.97;23.17;;;;;;;;;;5033377;28;20051;-78
2021/12/06 06:43:35;;;;;;;46.00;23.40;;;;;;;;;;5024632;28;20053;-79
2021/12/06 06:46:02;;;;;;;44.28;22.77;;;;;;;;;;5023099;28;20096;-78
2021/12/06 06:48:28;;;;;;;42.17;23.33;;;;;;;;;;5019372;28;20440;-77
2021/12/06 06:50:54;;;;;;;49.72;23.00;;;;;;;;;;5045339;28;20137;-78
2021/12/06 06:53:20;;;;;;;41.28;22.02;;;;;;;;;;5034021;28;20108;-79
2021/12/06 06:55:46;;;;;;;43.45;22.08;;;;;;;;;;5033182;28;20045;-77
2021/12/06 06:58:12;;;;;;;42.38;22.38;;;;;;;;;;5035541;28;20048;-79
2021/12/06 07:00:39;;;;;;;43.67;22.08;;;;;;;;;;5047233;28;20425;-78
2021/12/06 07:03:07;;;;;;;45.90;23.02;;;;;;;;;;5032790;28;20045;-78
2021/12/06 07:05:33;;;;;;;51.92;24.17;;;;;;;;;;5036788;28;20432;-77
2021/12/06 07:08:00;;;;;;;47.00;22.65;;;;;;;;;;5035931;28;20152;-79
2021/12/06 07:10:27;;;;;;;50.60;23.85;;;;;;;;;;5043104;28;20040;-79
2021/12/06 07:12:54;;;;;;;49.08;24.85;;;;;;;;;;5036936;28;20044;-79
2021/12/06 07:15:24;;;;;;;50.97;24.60;;;;;;;;;;5022302;28;20125;-78
2021/12/06 07:17:51;;;;;;;55.80;25.58;;;;;;;;;;5048319;28;20073;-77
2021/12/06 07:20:18;;;;;;;48.25;24.33;;;;;;;;;;5044503;28;20056;-79
2021/12/06 07:22:48;;;;;;;53.08;24.88;;;;;;;;;;5052990;28;20041;-78
2021/12/06 07:25:16;;;;;;;50.40;23.38;;;;;;;;;;5025051;28;20048;-77
2021/12/06 07:27:42;;;;;;;48.25;24.58;;;;;;;;;;5053074;28;20472;-82
2021/12/06 07:30:10;;;;;;;48.22;22.30;;;;;;;;;;5030069;28;20120;-79
2021/12/06 07:32:36;;;;;;;53.58;25.33;;;;;;;;;;5032989;28;20047;-79
2021/12/06 07:35:03;;;;;;;48.60;24.25;;;;;;;;;;5034216;28;20120;-77
2021/12/06 07:37:29;;;;;;;49.85;24.77;;;;;;;;;;5053306;28;20076;-75
2021/12/06 07:39:55;;;;;;;47.35;23.70;;;;;;;;;;5032562;28;20053;-78
2021/12/06 07:42:21;;;;;;;48.13;24.13;;;;;;;;;;5041983;28;20067;-79
2021/12/06 07:44:50;;;;;;;47.47;24.30;;;;;;;;;;5045129;28;20111;-78
2021/12/06 07:47:17;;;;;;;47.28;23.27;;;;;;;;;;5016305;28;20072;-78
2021/12/06 07:49:44;;;;;;;49.38;24.13;;;;;;;;;;5016136;28;20049;-78
2021/12/06 07:52:10;;;;;;;52.97;24.02;;;;;;;;;;5016355;28;20057;-78
2021/12/06 07:54:37;;;;;;;47.00;23.85;;;;;;;;;;5033465;28;20215;-79
2021/12/06 07:57:03;;;;;;;51.85;25.17;;;;;;;;;;5015805;28;20049;-78
2021/12/06 07:59:29;;;;;;;49.42;23.80;;;;;;;;;;5000585;28;20088;-77
2021/12/06 08:01:56;;;;;;;49.90;24.65;;;;;;;;;;4999892;28;20041;-78
2021/12/06 08:04:22;;;;;;;51.72;25.30;;;;;;;;;;5010872;28;20124;-78
2021/12/06 08:06:49;;;;;;;49.90;24.55;;;;;;;;;;5020476;28;20380;-79
2021/12/06 08:09:17;;;;;;;50.47;25.55;;;;;;;;;;5016146;28;20073;-79
2021/12/06 08:11:43;;;;;;;52.90;25.48;;;;;;;;;;5017771;28;20116;-78
2021/12/06 08:14:09;;;;;;;52.72;24.83;;;;;;;;;;5009697;28;20045;-78
2021/12/06 08:16:39;;;;;;;51.85;25.58;;;;;;;;;;5047190;28;20060;-79
2021/12/06 08:19:06;;;;;;;55.22;24.35;;;;;;;;;;5055115;28;20041;-78
2021/12/06 08:21:32;;;;;;;60.22;26.75;;;;;;;;;;5034738;28;20048;-78
2021/12/06 08:23:59;;;;;;;54.38;26.52;;;;;;;;;;5037867;28;20048;-78
2021/12/06 08:26:27;;;;;;;58.33;26.75;;;;;;;;;;5038469;28;20040;-78
2021/12/06 08:28:54;;;;;;;58.40;26.40;;;;;;;;;;5057558;28;20073;-78
2021/12/06 08:31:22;;;;;;;59.05;27.13;;;;;;;;;;5012109;28;20041;-78
2021/12/06 08:33:53;;;;;;;55.60;25.80;;;;;;;;;;5019714;28;20045;-78
2021/12/06 08:36:20;;;;;;;58.85;27.10;;;;;;;;;;5013196;28;20064;-77
2021/12/06 08:38:50;;;;;;;59.50;27.10;;;;;;;;;;5038033;28;20063;-76
2021/12/06 08:41:21;;;;;;;56.58;26.23;;;;;;;;;;5056421;28;20123;-76
2021/12/06 08:43:48;;;;;;;56.83;26.83;;;;;;;;;;5025404;28;20081;-77
2021/12/06 08:46:20;;;;;;;60.83;28.08;;;;;;;;;;5043533;28;20049;-77
2021/12/06 08:48:48;;;;;;;61.63;26.88;;;;;;;;;;5048683;28;20111;-78
2021/12/06 08:51:20;;;;;;;59.85;27.42;;;;;;;;;;5047636;28;20064;-77
2021/12/06 08:53:46;;;;;;;56.25;27.05;;;;;;;;;;5036467;28;20142;-73
2021/12/06 08:56:13;;;;;;;55.00;26.77;;;;;;;;;;5036171;28;20057;-73
2021/12/06 08:58:40;;;;;;;47.78;23.92;;;;;;;;;;5036814;28;20135;-76
2021/12/06 09:01:06;;;;;;;54.83;25.42;;;;;;;;;;5053267;28;20059;-77
2021/12/06 09:03:34;;;;;;;50.83;24.13;;;;;;;;;;5056785;28;20037;-77
2021/12/06 09:06:01;;;;;;;49.08;22.90;;;;;;;;;;5046949;28;20463;-76
2021/12/06 09:08:28;;;;;;;52.05;24.13;;;;;;;;;;5035765;28;20060;-78
2021/12/06 09:10:54;;;;;;;50.78;25.13;;;;;;;;;;5044384;28;20110;-78
2021/12/06 09:13:22;;;;;;;48.85;23.48;;;;;;;;;;5044433;28;20037;-78
2021/12/06 09:15:48;;;;;;;50.70;25.27;;;;;;;;;;5018709;28;20052;-77
2021/12/06 09:18:14;;;;;;;51.95;25.92;;;;;;;;;;5048673;28;20053;-77
2021/12/06 09:20:42;;;;;;;51.67;24.65;;;;;;;;;;5045598;28;20041;-79
2021/12/06 09:23:08;;;;;;;54.72;25.95;;;;;;;;;;5053951;28;20146;-77
2021/12/06 09:25:35;;;;;;;46.13;24.30;;;;;;;;;;5050169;28;20087;-79
2021/12/06 09:28:02;;;;;;;52.42;24.70;;;;;;;;;;5034827;28;20042;-79
2021/12/06 09:30:31;;;;;;;54.80;26.40;;;;;;;;;;5038442;28;20049;-78
2021/12/06 09:32:58;;;;;;;56.03;26.13;;;;;;;;;;5033335;28;20127;-78
2021/12/06 09:35:27;;;;;;;56.65;27.08;;;;;;;;;;5037017;28;20168;-79
2021/12/06 09:37:54;;;;;;;56.42;25.73;;;;;;;;;;5050087;28;20107;-78
2021/12/06 09:40:21;;;;;;;53.65;25.38;;;;;;;;;;5036435;28;20064;-78
2021/12/06 09:42:47;;;;;;;56.70;27.00;;;;;;;;;;5038689;28;20095;-79
2021/12/06 09:45:15;;;;;;;56.28;24.85;;;;;;;;;;5019919;28;20049;-78
2021/12/06 09:47:49;;;;;;;58.00;25.70;;;;;;;;;;5021952;28;20524;-78
2021/12/06 09:50:16;;;;;;;61.20;26.58;;;;;;;;;;5022228;28;20227;-77
2021/12/06 09:52:43;;;;;;;53.63;26.08;;;;;;;;;;5018537;28;20381;-79
2021/12/06 09:55:09;;;;;;;52.10;25.17;;;;;;;;;;5017674;28;20147;-80
2021/12/06 09:57:36;;;;;;;52.38;26.08;;;;;;;;;;5018984;28;20056;-77
2021/12/06 10:00:05;;;;;;;57.45;24.65;;;;;;;;;;5020521;28;20064;-78
2021/12/06 10:02:31;;;;;;;57.25;26.60;;;;;;;;;;5025601;28;20080;-78
2021/12/06 10:04:57;;;;;;;58.38;27.70;;;;;;;;;;5021707;28;20188;-78
2021/12/06 10:07:24;;;;;;;51.15;24.83;;;;;;;;;;5028714;28;20491;-78
2021/12/06 10:09:51;;;;;;;54.38;25.63;;;;;;;;;;5024473;28;20484;-79
2021/12/06 10:12:19;;;;;;;54.30;25.15;;;;;;;;;;5020913;28;20060;-79
2021/12/06 10:14:46;;;;;;;62.13;27.45;;;;;;;;;;5019817;28;20397;-77
2021/12/06 10:17:15;;;;;;;58.88;28.08;;;;;;;;;;5021946;28;20494;-79
2021/12/06 10:19:47;;;;;;;58.25;26.25;;;;;;;;;;5055281;28;20055;-87
2021/12/06 10:22:15;;;;;;;58.65;25.60;;;;;;;;;;5037592;28;20051;-77
2021/12/06 10:24:42;;;;;;;58.58;26.65;;;;;;;;;;5037846;28;20060;-77
2021/12/06 10:27:11;;;;;;;62.33;26.52;;;;;;;;;;5020404;28;20051;-77
2021/12/06 10:29:39;;;;;;;62.88;26.08;;;;;;;;;;5037522;28;20045;-75
2021/12/06 10:32:11;;;;;;;64.40;27.88;;;;;;;;;;5028579;28;20053;-77
2021/12/06 10:34:37;;;;;;;66.25;28.55;;;;;;;;;;5019095;28;20060;-78
2021/12/06 10:37:03;;;;;;;64.07;26.55;;;;;;;;;;5025850;28;20041;-78
2021/12/06 10:39:35;;;;;;;57.35;25.67;;;;;;;;;;5032104;28;20103;-77
2021/12/06 10:42:02;;;;;;;61.97;27.38;;;;;;;;;;5026405;28;20056;-80
2021/12/06 10:44:28;;;;;;;54.22;25.23;;;;;;;;;;5039416;28;20056;-78
2021/12/06 10:46:54;;;;;;;53.53;25.13;;;;;;;;;;5034866;28;20059;-78
2021/12/06 10:49:22;;;;;;;54.67;25.33;;;;;;;;;;5025411;28;20114;-77
2021/12/06 10:51:48;;;;;;;59.65;26.35;;;;;;;;;;5038599;28;20080;-81
2021/12/06 10:54:35;;;;;;;54.72;24.42;;;;;;;;;;5032367;28;20033;-79
2021/12/06 10:57:03;;;;;;;57.05;25.70;;;;;;;;;;5039536;28;20053;-80
2021/12/06 10:59:30;;;;;;;52.00;25.10;;;;;;;;;;5045299;28;20044;-80
2021/12/06 11:01:58;;;;;;;49.63;24.35;;;;;;;;;;5037947;28;20037;-79
2021/12/06 11:04:26;;;;;;;56.22;24.55;;;;;;;;;;5025699;28;20155;-80
2021/12/06 11:06:53;;;;;;;54.80;23.85;;;;;;;;;;5023534;28;20117;-78
2021/12/06 11:09:25;;;;;;;47.55;25.88;;;;;;;;;;5033917;28;20099;-80
2021/12/06 11:11:53;;;;;;;54.20;24.42;;;;;;;;;;5022064;28;20202;-80
2021/12/06 11:14:24;;;;;;;50.95;24.70;;;;;;;;;;5038638;28;20051;-79
2021/12/06 11:16:53;;;;;;;51.90;23.75;;;;;;;;;;5043357;28;20038;-79
2021/12/06 11:19:20;;;;;;;52.75;24.85;;;;;;;;;;5041696;28;20140;-80
2021/12/06 11:21:54;;;;;;;51.35;25.42;;;;;;;;;;5016067;28;20110;-79
2021/12/06 11:24:25;;;;;;;50.17;22.92;;;;;;;;;;5031830;28;20068;-80
2021/12/06 11:26:57;;;;;;;42.95;22.27;;;;;;;;;;5044755;28;20052;-79
2021/12/06 11:29:25;;;;;;;46.67;22.25;;;;;;;;;;5035744;28;20049;-80
2021/12/06 11:31:57;;;;;;;48.65;23.08;;;;;;;;;;5046659;28;20033;-78
2021/12/06 11:34:36;;;;;;;50.90;24.92;;;;;;;;;;5023233;28;20052;-79
2021/12/06 11:37:04;;;;;;;52.58;24.73;;;;;;;;;;5040752;28;20045;-81
2021/12/06 11:39:30;;;;;;;50.88;24.38;;;;;;;;;;5031882;28;20100;-79
2021/12/06 11:41:58;;;;;;;49.42;23.90;;;;;;;;;;5048172;28;20509;-81
2021/12/06 11:44:24;;;;;;;47.85;23.27;;;;;;;;;;5024367;28;20048;-79
2021/12/06 11:46:58;;;;;;;47.03;23.67;;;;;;;;;;5040995;28;20053;-78
2021/12/06 11:49:29;;;;;;;45.97;22.90;;;;;;;;;;5036705;28;20079;-79
2021/12/06 11:51:56;;;;;;;51.78;24.02;;;;;;;;;;5035711;28;20045;-76
2021/12/06 11:54:23;;;;;;;52.22;24.52;;;;;;;;;;5036059;28;20523;-75
2021/12/06 11:56:51;;;;;;;51.13;25.35;;;;;;;;;;5035907;28;20061;-76
2021/12/06 11:59:18;;;;;;;52.38;24.92;;;;;;;;;;5036425;28;20428;-76
2021/12/06 12:01:52;;;;;;;51.80;24.90;;;;;;;;;;5036306;28;20073;-76
2021/12/06 12:04:22;;;;;;;54.22;25.95;;;;;;;;;;5039542;28;20125;-78
2021/12/06 12:06:55;;;;;;;40.40;20.38;;;;;;;;;;5055240;28;20052;-80
2021/12/06 12:09:24;;;;;;;42.05;21.38;;;;;;;;;;5048939;28;20040;-80
2021/12/06 12:12:03;;;;;;;39.80;19.15;;;;;;;;;;5036770;28;20041;-80
2021/12/06 12:14:35;;;;;;;37.45;20.20;;;;;;;;;;5037281;28;20366;-78
2021/12/06 12:17:03;;;;;;;35.95;19.58;;;;;;;;;;5019163;28;20052;-79
2021/12/06 12:19:29;;;;;;;37.83;18.77;;;;;;;;;;5021334;28;20060;-80
2021/12/06 12:21:55;;;;;;;39.17;18.92;;;;;;;;;;5039715;28;20052;-79
2021/12/06 12:24:22;;;;;;;40.42;20.77;;;;;;;;;;5022513;28;20041;-80
2021/12/06 12:27:01;;;;;;;37.60;20.20;;;;;;;;;;5024309;28;20049;-79
2021/12/06 12:29:28;;;;;;;37.47;19.67;;;;;;;;;;5027700;28;20041;-79
2021/12/06 12:32:00;;;;;;;40.00;19.70;;;;;;;;;;5021477;28;20042;-79
2021/12/06 12:34:28;;;;;;;37.95;19.23;;;;;;;;;;5042274;28;20048;-80
2021/12/06 12:36:54;;;;;;;46.53;23.60;;;;;;;;;;5050477;28;20049;-79
2021/12/06 12:39:21;;;;;;;48.20;24.65;;;;;;;;;;5029722;28;20049;-78
2021/12/06 12:41:48;;;;;;;45.80;23.75;;;;;;;;;;5037737;28;20094;-79
2021/12/06 12:44:16;;;;;;;45.35;22.27;;;;;;;;;;5029457;28;20053;-79
2021/12/06 12:46:45;;;;;;;53.15;25.48;;;;;;;;;;5019023;28;20528;-79
2021/12/06 12:49:31;;;;;;;56.45;26.17;;;;;;;;;;5040900;28;20067;-79
2021/12/06 12:51:58;;;;;;;54.58;25.48;;;;;;;;;;5033222;28;20044;-80
2021/12/06 12:54:25;;;;;;;52.80;27.38;;;;;;;;;;5018793;28;20041;-80
2021/12/06 12:56:52;;;;;;;60.53;28.45;;;;;;;;;;5017005;28;20392;-79
2021/12/06 12:59:18;;;;;;;60.60;26.33;;;;;;;;;;5035588;28;20037;-78
2021/12/06 13:01:46;;;;;;;58.42;26.75;;;;;;;;;;5034958;28;20041;-78
2021/12/06 13:04:13;;;;;;;64.57;27.08;;;;;;;;;;5018389;28;20381;-79
2021/12/06 13:06:40;;;;;;;57.13;25.55;;;;;;;;;;5041243;28;20128;-79
2021/12/06 13:09:18;;;;;;;57.47;25.90;;;;;;;;;;5035475;28;20069;-79
2021/12/06 13:11:46;;;;;;;61.38;26.42;;;;;;;;;;5036079;28;20041;-77
2021/12/06 13:14:33;;;;;;;63.72;26.92;;;;;;;;;;5037403;28;20045;-79
2021/12/06 13:17:03;;;;;;;64.97;27.02;;;;;;;;;;5022196;28;20453;-78
2021/12/06 13:22:11;;;;;;;62.72;26.88;;;;;;;;;;5036615;28;20077;-80
2021/12/06 13:24:40;;;;;;;60.00;27.30;;;;;;;;;;5018226;28;20120;-79
2021/12/06 13:27:18;;;;;;;65.07;27.25;;;;;;;;;;5034903;28;20049;-79
2021/12/06 13:29:44;;;;;;;52.42;24.67;;;;;;;;;;5047674;28;20034;-79
2021/12/06 13:32:29;;;;;;;61.15;27.73;;;;;;;;;;5023153;28;20052;-79
2021/12/06 13:34:56;;;;;;;57.83;25.83;;;;;;;;;;5032007;28;20040;-81
2021/12/06 13:37:27;;;;;;;59.20;26.83;;;;;;;;;;5019532;28;20053;-80
2021/12/06 13:39:53;;;;;;;54.15;24.92;;;;;;;;;;5037067;28;20183;-80
2021/12/06 13:42:38;;;;;;;53.63;25.67;;;;;;;;;;5047800;28;20076;-80
2021/12/06 13:45:06;;;;;;;53.80;25.75;;;;;;;;;;5047168;28;20117;-79
2021/12/06 13:47:35;;;;;;;49.15;25.15;;;;;;;;;;5034968;28;20033;-83
2021/12/06 13:50:07;;;;;;;47.03;24.15;;;;;;;;;;5043821;28;20029;-79
2021/12/06 13:52:34;;;;;;;50.28;24.58;;;;;;;;;;5027370;28;20037;-79
2021/12/06 13:55:00;;;;;;;48.13;24.60;;;;;;;;;;5024140;28;20036;-79
2021/12/06 13:57:27;;;;;;;50.30;24.92;;;;;;;;;;5030999;28;20476;-79
2021/12/06 13:59:57;;;;;;;48.83;26.33;;;;;;;;;;5040276;28;20111;-80
2021/12/06 14:02:27;;;;;;;49.75;26.77;;;;;;;;;;5034514;28;20041;-80
2021/12/06 14:04:54;;;;;;;53.65;26.67;;;;;;;;;;5018549;28;20041;-78
2021/12/06 14:07:24;;;;;;;47.60;24.33;;;;;;;;;;5045388;28;20048;-80
2021/12/06 14:09:52;;;;;;;50.22;26.60;;;;;;;;;;5037291;28;20033;-80
2021/12/06 14:12:23;;;;;;;54.20;27.33;;;;;;;;;;5035558;28;20095;-80
2021/12/06 14:14:54;;;;;;;53.10;25.25;;;;;;;;;;5025153;28;20088;-79
2021/12/06 14:17:21;;;;;;;54.20;25.17;;;;;;;;;;5037453;28;20041;-79
2021/12/06 14:19:48;;;;;;;51.55;26.50;;;;;;;;;;5037163;28;20045;-80
2021/12/06 14:22:16;;;;;;;49.75;24.88;;;;;;;;;;5037247;28;20041;-80
2021/12/06 14:24:43;;;;;;;51.97;25.83;;;;;;;;;;5053762;28;20122;-78
2021/12/06 14:27:10;;;;;;;52.13;25.30;;;;;;;;;;5052881;28;20461;-80
2021/12/06 14:29:36;;;;;;;52.70;27.05;;;;;;;;;;5036941;28;20127;-80
2021/12/06 14:32:06;;;;;;;50.83;26.23;;;;;;;;;;5037544;28;20033;-79
2021/12/06 14:34:33;;;;;;;50.38;26.35;;;;;;;;;;5036185;28;20048;-79
2021/12/06 14:37:03;;;;;;;51.40;24.80;;;;;;;;;;5032461;28;20164;-79
2021/12/06 14:39:29;;;;;;;46.22;25.23;;;;;;;;;;5033379;28;20128;-79